This is the latest recevied weather packets stored in our database for station/object KF0PEC-15. If no packets are shown the sender has not sent any weather packets the latest 10 day(s).
| Time | Temp. | Humidity | Pressure | Rain* | Wind** | Luminosity | Snow |
|---|---|---|---|---|---|---|---|
| 1777061474 | 21.67° C | 11% | 998.3 hPa | 0 mm | - | 730 W/m² | - |
| 1777060955 | 22.22° C | 11% | 997.9 hPa | 0 mm | - | 814 W/m² | - |
| 1777060429 | 22.78° C | 11% | 997.6 hPa | 0 mm | - | 829 W/m² | - |
| 1777059900 | 21.11° C | 13% | 998.3 hPa | 0 mm | - | 543 W/m² | - |
| 1777059409 | 21.11° C | 14% | 998.6 hPa | 0 mm | - | 379 W/m² | - |
| 1777058860 | 20.56° C | 13% | 999.3 hPa | 0 mm | - | 513 W/m² | - |
| 1777058285 | 20° C | 15% | 999.9 hPa | 0 mm | - | 630 W/m² | - |
| 1777057689 | 19.44° C | 15% | 1000.7 hPa | 0 mm | - | 619 W/m² | - |
| 1777057205 | 18.89° C | 14% | 1001.4 hPa | 0 mm | - | 682 W/m² | - |
| 1777056720 | 18.33° C | 16% | 1001.9 hPa | 0 mm | - | 827 W/m² | - |
| 1777056160 | 19.44° C | 15% | 1001.6 hPa | 0 mm | - | 816 W/m² | - |
| 1777055669 | 18.33° C | 16% | 1002.6 hPa | 0 mm | - | 814 W/m² | - |
| 1777055085 | 18.33° C | 17% | 1003.1 hPa | 0 mm | - | 749 W/m² | - |
| 1777054535 | 18.33° C | 17% | 1003.3 hPa | 0 mm | - | 772 W/m² | - |
| 1777054025 | 18.33° C | 19% | 1003.6 hPa | 0 mm | - | 794 W/m² | - |
| 1777053500 | 17.78° C | 19% | 1004.5 hPa | 0 mm | - | 793 W/m² | - |
| 1777052929 | 17.22° C | 19% | 1005.2 hPa | 0 mm | - | 781 W/m² | - |
| 1777052395 | 16.67° C | 20% | 1005.6 hPa | 0 mm | - | 767 W/m² | - |
| 1777051905 | 16.11° C | 19% | 1006 hPa | 0 mm | - | 759 W/m² | - |
| 1777051349 | 17.78° C | 19% | 1005.2 hPa | 0 mm | - | 743 W/m² | - |
| 1777050857 | 17.22° C | 19% | 1005.6 hPa | 0 mm | - | 724 W/m² | - |
| 1777050315 | 16.11° C | 21% | 1006.4 hPa | 0 mm | - | 704 W/m² | - |
| 1777049740 | 16.67° C | 20% | 1006.2 hPa | 0 mm | - | 693 W/m² | - |
| 1777049185 | 15.56° C | 21% | 1007.2 hPa | 0 mm | - | 678 W/m² | - |
* Rain latest hour (hover to see other rain measurements)
** Current wind speed in m/s (hover to see current wind gust speed)